Accueil
METAR-TAF:

METAR-TAF

Aéroports :

Cassel, Allemagne

latitude: 51-24N, longitude: 009-23E, altitude: 277 m

Observation

Le bulletin a été fait il y a 40 minutes, à 15:50 UTC
Vent 14 kt de ouest
Température 14°C
Humidité 82%
Pression 1020 hPa
Visibilité 10 km ou plus
Nuages fragmentés à une hauteur de 2100 ft

METAR: EDVK 301550Z 26014KT 9999 BKN021 14/11 Q1020

Heure: 17:30 (16:30 UTC)

Prévision

Le bulletin a été fait il y a 2 heures et 30 minutes, à 14:00 UTC
Prévision valable du 30 à 15 UTC au 30 à 24 UTC
Vent 11 kt de ouest/sud-ouest
Visibilité 10 km ou plus
Nuages fragmentés à une hauteur de 2500 ft
Evoluant progressivement
du 30 à 19 UTC au 30 à 22 UTC
Vent 5 kt de ouest/sud-ouest

TAF: EDVK 301400Z 3015/3024 24011KT 9999 BKN025 BECMG 3019/3022 24005KT

Observations et prévisions météorologiques de plus de 4000 aéroports (messages METAR et TAF).

Les stations disponibles sont représentées par des disques jaunes et rouges sur la carte.

Passer la souris dessus pour voir le nom de la station.

Cliquer dessus pour voir les observations et prévisions météorologiques.

Pour changer de carte: cliquez sur les boutons verts avec une croix noire pour zoomer, sur le bouton vert avec un tiret pour effectuer un zoom arrière, ou sur les flèches vertes pour les cartes adjacentes.


METAR-TAF: